createdAt,value
2022-08-17T05:06:47.697Z,61.88
2022-08-17T05:07:47.692Z,61.88
2022-08-17T05:08:47.671Z,61.88
2022-08-17T05:09:47.658Z,61.88
2022-08-17T05:10:47.641Z,61.88
2022-08-17T05:11:47.638Z,61.88
2022-08-17T05:12:47.631Z,61.88
2022-08-17T05:13:47.620Z,67.50
2022-08-17T05:14:47.600Z,67.50
2022-08-17T05:15:48.015Z,73.12
2022-08-17T05:16:47.582Z,73.12
2022-08-17T05:17:47.582Z,78.75
2022-08-17T05:18:47.552Z,84.38
2022-08-17T05:19:51.759Z,90.00
2022-08-17T05:20:47.542Z,95.62
2022-08-17T05:21:47.522Z,101.25
2022-08-17T05:22:47.524Z,106.88
2022-08-17T05:23:50.358Z,112.50
2022-08-17T05:24:53.738Z,112.50
2022-08-17T05:25:48.484Z,112.50
2022-08-17T05:26:47.515Z,118.12
2022-08-17T05:27:47.476Z,123.75
2022-08-17T05:28:47.454Z,123.75
2022-08-17T05:29:47.448Z,129.38
2022-08-17T05:30:49.277Z,135.00
2022-08-17T05:31:47.425Z,135.00
2022-08-17T05:32:47.409Z,140.62
2022-08-17T05:33:47.436Z,146.25
2022-08-17T05:34:47.387Z,146.25
2022-08-17T05:35:47.369Z,151.88
2022-08-17T05:36:47.358Z,157.50
2022-08-17T05:37:47.351Z,163.12
2022-08-17T05:38:47.359Z,168.75
2022-08-17T05:39:47.370Z,174.38
2022-08-17T05:40:47.335Z,180.00
2022-08-17T05:41:47.315Z,185.62
2022-08-17T05:42:47.293Z,191.25
2022-08-17T05:43:47.293Z,196.88
2022-08-17T05:44:47.271Z,196.88
2022-08-17T05:45:55.305Z,196.88
2022-08-17T05:46:48.251Z,196.88
2022-08-17T05:47:47.243Z,202.50
2022-08-17T05:48:47.234Z,202.50
2022-08-17T05:49:49.030Z,202.50
2022-08-17T05:50:47.204Z,208.12
2022-08-17T05:51:47.193Z,213.75
2022-08-17T05:52:47.225Z,213.75
2022-08-17T05:53:47.222Z,219.38
2022-08-17T05:54:47.153Z,219.38
2022-08-17T05:55:47.164Z,219.38
2022-08-17T05:56:47.140Z,225.00
2022-08-17T05:57:53.865Z,225.00
2022-08-17T05:58:48.175Z,230.62
2022-08-17T05:59:47.128Z,230.62
2022-08-17T06:00:47.116Z,236.25
2022-08-17T06:01:47.112Z,241.88
2022-08-17T06:02:48.040Z,247.50
2022-08-17T06:03:47.080Z,253.12
2022-08-17T06:04:47.048Z,253.12
2022-08-17T06:05:47.081Z,258.75
2022-08-17T06:06:47.030Z,258.75
2022-08-17T06:07:47.019Z,264.38
2022-08-17T06:08:47.082Z,275.62
2022-08-17T06:09:46.999Z,281.25
2022-08-17T06:10:46.999Z,286.88
2022-08-17T06:11:47.069Z,286.88
2022-08-17T06:12:47.965Z,292.50
2022-08-17T06:13:46.980Z,298.12
2022-08-17T06:14:47.011Z,303.75
2022-08-17T06:15:46.933Z,309.38
2022-08-17T06:16:47.053Z,320.62
2022-08-17T06:17:46.935Z,320.62
2022-08-17T06:18:46.903Z,326.25
2022-08-17T06:19:46.895Z,337.50
2022-08-17T06:20:46.882Z,354.38
2022-08-17T06:21:46.872Z,371.25
2022-08-17T06:22:46.893Z,393.75
2022-08-17T06:23:46.968Z,416.25
2022-08-17T06:24:46.836Z,438.75
2022-08-17T06:25:46.829Z,461.25
2022-08-17T06:26:46.816Z,489.38
2022-08-17T06:27:46.809Z,511.88
2022-08-17T06:28:46.798Z,534.38
2022-08-17T06:29:46.798Z,556.88
2022-08-17T07:01:06.897Z,585.00
2022-08-17T07:02:06.756Z,601.88
2022-08-17T07:03:07.090Z,630.00
2022-08-17T07:04:11.872Z,663.75
2022-08-17T07:05:07.704Z,697.50
2022-08-17T07:06:06.846Z,736.88
2022-08-17T07:07:06.683Z,770.62
2022-08-17T07:08:06.753Z,787.50
2022-08-17T07:09:06.674Z,770.62
2022-08-17T07:10:06.686Z,753.75
2022-08-17T07:11:06.647Z,731.25
2022-08-17T07:12:06.686Z,714.38
2022-08-17T07:13:06.639Z,703.12
2022-08-17T07:14:06.615Z,697.50
2022-08-17T07:15:06.609Z,703.12
2022-08-17T07:16:06.859Z,703.12
2022-08-17T07:17:06.577Z,708.75
2022-08-17T07:18:06.617Z,703.12
2022-08-17T07:19:06.558Z,708.75
2022-08-17T07:20:06.587Z,798.75
2022-08-17T07:21:06.530Z,849.38
2022-08-17T07:22:06.544Z,736.88
2022-08-17T07:23:06.521Z,753.75
2022-08-17T07:24:06.530Z,866.25
2022-08-17T07:25:06.510Z,894.38
2022-08-17T07:26:06.577Z,1136.25
2022-08-17T07:27:06.494Z,1355.62
2022-08-17T07:28:07.136Z,973.12
2022-08-17T07:29:06.495Z,871.88
2022-08-17T07:30:10.273Z,776.25
2022-08-17T07:31:06.441Z,720.00
2022-08-17T07:32:06.444Z,652.50
2022-08-17T07:33:06.426Z,590.62
2022-08-17T07:34:06.447Z,534.38
2022-08-17T07:35:06.397Z,500.62
2022-08-17T07:36:06.406Z,483.75
2022-08-17T07:37:06.377Z,478.12
2022-08-17T07:38:06.375Z,483.75
2022-08-17T07:39:07.368Z,624.38
2022-08-17T07:40:16.013Z,545.62
2022-08-17T07:41:07.324Z,579.38
2022-08-17T07:42:06.380Z,658.12
2022-08-17T07:43:06.300Z,658.12
2022-08-17T07:44:06.401Z,663.75
2022-08-17T07:45:06.281Z,680.62
2022-08-17T07:46:06.272Z,691.88
2022-08-17T07:47:06.252Z,708.75
2022-08-17T07:48:06.281Z,720.00
2022-08-17T07:49:06.242Z,742.50
2022-08-17T07:50:06.288Z,736.88
2022-08-17T07:51:06.214Z,742.50
2022-08-17T07:52:24.279Z,731.25
2022-08-17T07:53:07.191Z,742.50
2022-08-17T07:54:14.471Z,731.25
2022-08-17T07:55:07.168Z,635.62
2022-08-17T07:56:06.185Z,573.75
2022-08-17T07:57:06.156Z,523.12
2022-08-17T07:58:06.135Z,489.38
2022-08-17T07:59:06.137Z,455.62
2022-08-17T08:00:06.166Z,433.12
2022-08-17T08:01:07.110Z,405.00
2022-08-17T08:02:06.305Z,388.12
2022-08-17T08:03:06.087Z,388.12
2022-08-17T08:04:06.191Z,388.12
2022-08-17T08:05:08.773Z,393.75
2022-08-17T08:06:06.119Z,393.75
2022-08-17T08:07:06.040Z,388.12
2022-08-17T08:08:06.106Z,371.25
2022-08-17T08:09:06.031Z,354.38
2022-08-17T08:10:06.012Z,343.12
2022-08-17T08:11:06.013Z,326.25
2022-08-17T08:12:06.031Z,320.62
2022-08-17T08:13:06.972Z,309.38
2022-08-17T08:14:06.017Z,303.75
2022-08-17T08:15:05.956Z,292.50
2022-08-17T08:16:05.969Z,286.88
2022-08-17T08:17:05.944Z,275.62
2022-08-17T08:18:05.943Z,270.00
2022-08-17T08:19:05.924Z,270.00
2022-08-17T08:20:42.455Z,264.38
2022-08-17T08:21:06.885Z,253.12
2022-08-17T08:22:05.937Z,247.50
2022-08-17T08:23:05.876Z,241.88
2022-08-17T08:24:05.877Z,236.25
2022-08-17T08:25:05.850Z,236.25
2022-08-17T08:26:05.950Z,225.00
2022-08-17T08:27:05.829Z,208.12
2022-08-17T08:28:05.920Z,191.25
2022-08-17T08:29:05.932Z,174.38
2022-08-17T08:30:05.803Z,163.12
2022-08-17T08:31:05.790Z,157.50
2022-08-17T08:32:05.782Z,151.88
2022-08-17T08:33:05.761Z,157.50
2022-08-17T08:34:05.802Z,174.38
2022-08-17T08:35:05.742Z,185.62
2022-08-17T08:36:05.754Z,202.50
2022-08-17T08:37:17.151Z,202.50
2022-08-17T08:38:06.760Z,202.50
2022-08-17T08:39:05.711Z,202.50
2022-08-17T08:40:05.763Z,196.88
2022-08-17T08:41:05.684Z,196.88
2022-08-17T08:42:05.676Z,196.88
2022-08-17T08:43:05.664Z,196.88
2022-08-17T08:44:05.695Z,191.25
2022-08-17T08:45:05.755Z,191.25
2022-08-17T08:46:05.646Z,191.25
2022-08-17T08:47:05.615Z,196.88
2022-08-17T08:48:05.905Z,202.50
2022-08-17T08:49:12.122Z,208.12
2022-08-17T08:50:06.800Z,208.12
2022-08-17T08:51:05.568Z,213.75
2022-08-17T08:52:05.599Z,213.75
2022-08-17T08:53:06.046Z,225.00
2022-08-17T08:54:05.576Z,230.62
2022-08-17T08:55:05.532Z,236.25
2022-08-17T08:56:05.541Z,230.62
2022-08-17T08:57:24.483Z,225.00
2022-08-17T08:58:06.555Z,219.38
2022-08-17T08:59:05.501Z,213.75
2022-08-17T09:00:05.506Z,202.50
2022-08-17T09:01:05.543Z,196.88
2022-08-17T09:02:05.462Z,196.88
2022-08-17T09:03:05.442Z,208.12
2022-08-17T09:04:23.371Z,225.00
2022-08-17T09:05:14.984Z,241.88
2022-08-17T09:06:06.444Z,264.38
2022-08-17T09:07:06.416Z,270.00
2022-08-17T09:08:05.418Z,275.62
2022-08-17T09:09:05.397Z,281.25
2022-08-17T09:10:05.377Z,298.12
2022-08-17T09:11:05.366Z,315.00
2022-08-17T09:12:05.359Z,326.25
2022-08-17T09:13:09.922Z,320.62
2022-08-17T09:14:06.430Z,298.12
2022-08-17T09:15:10.857Z,281.25
2022-08-17T09:16:06.379Z,264.38
2022-08-17T09:17:05.298Z,253.12
2022-08-17T09:19:03.059Z,247.50
2022-08-17T09:19:06.503Z,236.25
2022-08-17T09:20:05.260Z,230.62
2022-08-17T09:21:05.262Z,230.62
2022-08-17T09:22:05.241Z,225.00
2022-08-17T09:23:05.232Z,202.50
2022-08-17T09:24:05.265Z,174.38
2022-08-17T09:25:05.212Z,163.12
2022-08-17T09:26:05.242Z,163.12
2022-08-17T09:27:05.204Z,174.38
2022-08-17T09:28:05.197Z,180.00
2022-08-17T09:29:05.185Z,185.62
2022-08-17T09:30:05.156Z,196.88
2022-08-17T09:31:05.143Z,225.00
2022-08-17T09:32:05.174Z,258.75
2022-08-17T09:33:05.137Z,286.88
2022-08-17T09:34:05.155Z,303.75
2022-08-17T09:35:05.114Z,286.88
2022-08-17T09:36:05.105Z,264.38
2022-08-17T09:37:05.188Z,247.50
2022-08-17T09:38:05.179Z,241.88
2022-08-17T09:39:05.066Z,247.50
2022-08-17T09:40:05.121Z,258.75
2022-08-17T09:41:05.047Z,281.25
2022-08-17T09:42:05.042Z,309.38
2022-08-17T09:43:05.024Z,343.12
2022-08-17T09:44:05.010Z,365.62
2022-08-17T09:45:05.019Z,405.00
2022-08-17T09:46:05.018Z,455.62
2022-08-17T09:47:04.990Z,523.12
2022-08-17T09:48:05.021Z,585.00
2022-08-17T09:49:04.972Z,663.75
2022-08-17T09:50:04.971Z,742.50
2022-08-17T09:51:06.493Z,821.25
2022-08-17T09:52:04.943Z,928.12
2022-08-17T09:53:04.923Z,1051.88
2022-08-17T09:54:35.194Z,1411.88
2022-08-17T09:55:05.904Z,1389.38
2022-08-17T09:56:04.924Z,1456.88
2022-08-17T09:57:27.887Z,1490.62
2022-08-17T09:58:05.895Z,1603.12
2022-08-17T09:59:04.855Z,1473.75
2022-08-17T10:00:04.867Z,1338.75
2022-08-17T10:01:04.881Z,1198.12
2022-08-17T10:02:04.823Z,1091.25
2022-08-17T10:03:04.817Z,995.62
2022-08-17T10:04:04.816Z,905.62
2022-08-17T10:05:04.808Z,838.12
2022-08-17T10:06:06.525Z,781.88
2022-08-17T10:07:04.773Z,748.12
2022-08-17T10:08:04.762Z,736.88
2022-08-17T10:09:04.749Z,748.12
2022-08-17T10:10:04.753Z,781.88
2022-08-17T10:11:04.728Z,832.50
2022-08-17T10:12:04.731Z,883.12
2022-08-17T10:13:04.701Z,900.00
2022-08-17T10:14:12.509Z,928.12
2022-08-17T10:15:08.109Z,939.38
2022-08-17T10:16:04.718Z,961.88
2022-08-17T10:17:04.655Z,973.12
2022-08-17T10:18:04.676Z,967.50
2022-08-17T10:19:04.643Z,967.50
2022-08-17T10:20:04.664Z,984.38
2022-08-17T10:21:04.656Z,1040.62
2022-08-17T10:22:15.008Z,1113.75
2022-08-17T10:23:05.614Z,1209.38
2022-08-17T10:24:04.621Z,1316.25
2022-08-17T10:25:23.403Z,1400.62
2022-08-17T10:26:05.588Z,1490.62
2022-08-17T10:27:04.557Z,1603.12
2022-08-17T10:28:04.565Z,1687.50
2022-08-17T10:29:04.544Z,1839.38
2022-08-17T10:30:04.689Z,2463.75
2022-08-17T10:31:32.970Z,4201.88
2022-08-17T10:32:05.500Z,4438.12
2022-08-17T10:33:04.490Z,3881.25
2022-08-17T10:34:04.824Z,3420.00
2022-08-17T10:35:04.480Z,2655.00
2022-08-17T10:36:08.792Z,3088.12
2022-08-17T10:37:05.442Z,4162.50
2022-08-17T10:38:04.441Z,4016.25
2022-08-17T10:39:04.449Z,4128.75
2022-08-17T10:40:04.494Z,3841.88
2022-08-17T10:41:04.403Z,3999.38
2022-08-17T10:42:04.442Z,3791.25
2022-08-17T10:43:04.388Z,3785.62
2022-08-17T10:44:39.756Z,2913.75
2022-08-17T10:45:05.389Z,2705.62
2022-08-17T10:46:09.532Z,3352.50
2022-08-17T10:47:05.349Z,3836.25
2022-08-17T10:48:06.523Z,2008.12
2022-08-17T10:49:04.348Z,1873.12
2022-08-17T10:50:04.417Z,2103.75
2022-08-17T10:51:04.318Z,1828.12
2022-08-17T10:52:04.354Z,1659.38
2022-08-17T10:53:04.310Z,1659.38
2022-08-17T10:54:04.344Z,1614.38
2022-08-17T10:55:04.282Z,1563.75
2022-08-17T10:56:04.282Z,1501.88
2022-08-17T10:57:04.265Z,1400.62
2022-08-17T10:58:04.306Z,1344.38
2022-08-17T10:59:04.247Z,1282.50
2022-08-17T11:00:04.304Z,1231.88
2022-08-17T11:01:04.276Z,1192.50
2022-08-17T11:02:04.618Z,1198.12
2022-08-17T11:03:04.196Z,1175.62
2022-08-17T11:04:04.240Z,1170.00
2022-08-17T11:05:04.210Z,1175.62
2022-08-17T11:06:04.198Z,1186.88
2022-08-17T11:07:04.148Z,1462.50
2022-08-17T11:08:04.149Z,1288.12
2022-08-17T11:09:04.136Z,1372.50
2022-08-17T11:10:04.146Z,1479.38
2022-08-17T11:11:04.140Z,2340.00
2022-08-17T11:12:04.121Z,1867.50
2022-08-17T11:13:04.090Z,2013.75
2022-08-17T11:14:04.089Z,2250.00
2022-08-17T11:15:04.083Z,2182.50
2022-08-17T11:16:08.282Z,2368.12
2022-08-17T11:17:04.053Z,2441.25
2022-08-17T11:18:04.080Z,2666.25
2022-08-17T11:19:04.030Z,2868.75
2022-08-17T11:20:04.043Z,3262.50
2022-08-17T11:21:04.013Z,2683.12
2022-08-17T11:22:04.024Z,3279.38
2022-08-17T11:23:03.995Z,2199.38
2022-08-17T13:15:46.236Z,2379.38
2022-08-17T13:16:46.282Z,1423.12
2022-08-17T13:17:46.204Z,1575.00
2022-08-17T13:18:46.267Z,3048.75
2022-08-17T13:19:46.139Z,2323.12
2022-08-17T13:20:46.127Z,3133.12
2022-08-17T13:21:46.113Z,3273.75
2022-08-17T13:22:46.108Z,3150.00
2022-08-17T13:23:53.495Z,3015.00
2022-08-17T13:24:47.110Z,2970.00
2022-08-17T13:25:46.081Z,2896.88
2022-08-17T13:26:46.071Z,2868.75
2022-08-17T13:27:46.123Z,2863.12
2022-08-17T13:28:46.053Z,1580.62
2022-08-17T13:29:51.608Z,2418.75
2022-08-17T13:30:47.024Z,1530.00
2022-08-17T13:31:51.926Z,2300.62
2022-08-17T13:32:47.096Z,2756.25
2022-08-17T13:33:45.995Z,3116.25
2022-08-17T13:35:07.747Z,2885.62
2022-08-17T13:35:50.439Z,2925.00
2022-08-17T13:36:45.977Z,3076.88
2022-08-17T13:37:46.003Z,3105.00
2022-08-17T13:38:45.979Z,2058.75
2022-08-17T13:39:46.054Z,2120.62
2022-08-17T13:40:45.937Z,2649.38
2022-08-17T13:41:45.929Z,1580.62
2022-08-17T13:42:50.425Z,1445.62
2022-08-17T13:43:46.939Z,1215.00
2022-08-17T13:44:45.918Z,1237.50
2022-08-17T13:45:45.891Z,1271.25
2022-08-17T13:46:46.888Z,1344.38
2022-08-17T13:47:46.925Z,1164.38
2022-08-17T13:48:45.899Z,1186.88
2022-08-17T13:49:48.937Z,2390.62
2022-08-17T13:50:45.894Z,1316.25
2022-08-17T13:51:45.845Z,995.62
2022-08-17T13:52:48.871Z,1023.75
2022-08-17T13:53:46.815Z,1192.50
2022-08-17T13:54:45.822Z,2176.88
2022-08-17T13:55:45.836Z,1350.00
2022-08-17T13:56:45.806Z,1473.75
2022-08-17T13:57:45.817Z,1468.12
2022-08-17T13:58:45.835Z,1957.50
2022-08-17T13:59:53.062Z,1423.12
2022-08-17T14:00:46.764Z,1434.38
2022-08-17T14:01:49.689Z,1440.00
2022-08-17T14:02:46.731Z,2458.12
2022-08-17T14:03:45.761Z,1434.38
2022-08-17T14:04:46.732Z,1321.88
2022-08-17T14:05:45.717Z,1074.38
2022-08-17T14:06:51.868Z,990.00
2022-08-17T14:07:46.700Z,973.12
2022-08-17T14:08:45.672Z,1018.12
2022-08-17T14:09:45.663Z,1063.12
2022-08-17T14:10:45.655Z,1237.50
2022-08-17T14:11:45.636Z,1243.12
2022-08-17T14:12:45.630Z,1220.62
2022-08-17T14:13:45.617Z,1198.12
2022-08-17T14:14:45.618Z,967.50
2022-08-17T14:15:55.039Z,793.12
2022-08-17T14:16:46.589Z,675.00
2022-08-17T14:17:45.579Z,613.12
2022-08-17T14:18:55.892Z,568.12
2022-08-17T14:19:46.570Z,545.62
2022-08-17T14:20:45.540Z,551.25
2022-08-17T14:21:45.529Z,556.88
2022-08-17T14:22:45.535Z,601.88
2022-08-17T14:23:48.994Z,590.62
2022-08-17T14:24:46.502Z,607.50
2022-08-17T14:25:45.522Z,635.62
2022-08-17T14:26:45.490Z,680.62
2022-08-17T14:27:53.028Z,798.75
2022-08-17T14:28:54.571Z,798.75
2022-08-17T14:29:46.452Z,838.12
2022-08-17T14:30:45.453Z,883.12
2022-08-17T14:31:48.518Z,956.25
2022-08-17T14:32:46.425Z,939.38
2022-08-17T14:33:45.415Z,911.25
2022-08-17T14:34:45.429Z,888.75
2022-08-17T14:35:45.396Z,871.88
2022-08-17T14:36:45.386Z,877.50
2022-08-17T14:37:45.458Z,894.38
2022-08-17T14:38:45.372Z,950.62
2022-08-17T14:39:45.418Z,1153.12
2022-08-17T14:40:45.347Z,1800.00
2022-08-17T14:41:45.327Z,1530.00
2022-08-17T14:42:46.017Z,2092.50
2022-08-17T14:43:45.312Z,2036.25
2022-08-17T14:44:45.313Z,1906.88
2022-08-17T14:45:45.283Z,1771.88
2022-08-17T14:46:45.283Z,1788.75
2022-08-17T14:47:45.263Z,1203.75
2022-08-17T14:48:45.256Z,939.38
2022-08-17T14:49:47.651Z,888.75
2022-08-17T14:50:45.244Z,905.62
2022-08-17T14:51:45.235Z,995.62
2022-08-17T14:52:45.216Z,922.50
2022-08-17T14:53:45.246Z,922.50
2022-08-17T14:54:45.896Z,860.62
2022-08-17T14:55:45.187Z,765.00
2022-08-17T14:56:45.320Z,731.25
2022-08-17T14:57:45.256Z,697.50
2022-08-17T14:58:45.149Z,691.88
2022-08-17T14:59:45.323Z,731.25
2022-08-17T15:00:45.129Z,787.50
2022-08-17T15:01:45.147Z,793.12
2022-08-17T15:02:45.114Z,798.75
2022-08-17T15:03:45.113Z,804.38
2022-08-17T15:04:45.827Z,815.62
2022-08-17T15:05:45.084Z,826.88
2022-08-17T15:06:45.122Z,1018.12
2022-08-17T15:07:45.068Z,973.12
2022-08-17T15:08:45.054Z,793.12
2022-08-17T15:09:45.053Z,736.88
2022-08-17T15:10:45.033Z,748.12
2022-08-17T15:11:45.024Z,725.62
2022-08-17T15:12:45.022Z,748.12
2022-08-17T15:13:53.051Z,928.12
2022-08-17T15:14:45.996Z,1029.38
2022-08-17T15:15:44.977Z,978.75
2022-08-17T15:16:44.971Z,883.12
2022-08-17T15:17:45.950Z,787.50
2022-08-17T15:18:44.937Z,978.75
2022-08-17T15:19:44.948Z,1091.25
2022-08-17T15:20:44.929Z,765.00
2022-08-17T15:21:44.919Z,680.62
2022-08-17T15:22:44.917Z,669.38
2022-08-17T15:23:44.900Z,607.50
2022-08-17T15:24:44.890Z,556.88
2022-08-17T15:25:44.891Z,540.00
2022-08-17T15:26:44.862Z,540.00
2022-08-17T15:27:44.926Z,523.12
2022-08-17T15:28:44.846Z,500.62
2022-08-17T15:30:36.990Z,489.38
2022-08-17T15:31:36.960Z,483.75
2022-08-17T15:32:36.966Z,478.12
2022-08-17T15:33:36.944Z,478.12
2022-08-17T15:34:36.953Z,472.50
2022-08-17T15:35:36.924Z,478.12
2022-08-17T15:36:37.038Z,495.00
2022-08-17T15:37:36.973Z,495.00
2022-08-17T15:38:36.915Z,466.88
2022-08-17T15:39:36.950Z,466.88
2022-08-17T15:40:36.981Z,466.88
2022-08-17T15:41:36.866Z,461.25
2022-08-17T15:42:36.848Z,472.50
2022-08-17T15:43:36.849Z,455.62
2022-08-17T15:44:36.848Z,455.62
2022-08-17T15:45:36.823Z,427.50
2022-08-17T15:46:36.820Z,421.88
2022-08-17T15:47:36.799Z,455.62
2022-08-17T15:48:36.787Z,438.75
2022-08-17T15:49:36.790Z,478.12
2022-08-17T15:50:36.771Z,523.12
2022-08-17T15:51:36.752Z,579.38
2022-08-17T15:52:36.750Z,495.00
2022-08-17T15:53:36.732Z,461.25
2022-08-17T15:54:36.733Z,450.00
2022-08-17T15:55:36.717Z,455.62
2022-08-17T15:56:36.701Z,517.50
2022-08-17T15:57:36.691Z,495.00
2022-08-17T15:58:36.683Z,399.38
2022-08-17T15:59:36.683Z,399.38
2022-08-17T16:00:49.061Z,405.00
2022-08-17T16:03:01.492Z,416.25
2022-08-17T16:03:47.026Z,421.88
2022-08-17T16:03:59.392Z,416.25
2022-08-17T16:04:43.937Z,399.38
2022-08-17T16:05:37.683Z,388.12
2022-08-17T16:06:36.596Z,371.25
2022-08-17T16:07:36.598Z,365.62
2022-08-17T16:08:36.576Z,360.00
2022-08-17T16:09:36.576Z,360.00
2022-08-17T16:10:36.549Z,354.38
2022-08-17T18:02:07.793Z,101.25
2022-08-17T18:03:07.635Z,101.25
2022-08-17T18:04:08.308Z,95.62
2022-08-17T18:05:08.607Z,95.62
2022-08-17T18:06:07.647Z,95.62
2022-08-17T18:07:09.947Z,90.00
2022-08-17T18:08:10.824Z,90.00
2022-08-17T18:09:07.558Z,90.00
2022-08-17T18:10:19.551Z,84.38
2022-08-17T18:11:08.561Z,84.38
2022-08-17T18:12:07.568Z,78.75
2022-08-17T18:13:07.524Z,78.75
2022-08-17T18:14:07.666Z,78.75
2022-08-17T18:15:07.502Z,73.12
2022-08-17T18:16:07.491Z,73.12
2022-08-17T18:17:07.491Z,67.50
2022-08-17T18:18:07.512Z,67.50
2022-08-17T18:19:07.451Z,67.50
2022-08-17T18:20:07.493Z,61.88
2022-08-17T18:21:07.423Z,61.88
2022-08-17T18:22:07.422Z,56.25
2022-08-17T18:23:08.405Z,56.25
2022-08-17T18:24:07.415Z,56.25
2022-08-17T18:25:07.394Z,50.62
2022-08-17T18:26:08.005Z,50.62
2022-08-17T18:27:08.521Z,45.00
2022-08-17T18:28:07.596Z,45.00
2022-08-17T18:29:07.337Z,45.00
2022-08-17T18:30:09.394Z,39.38
2022-08-17T18:31:07.312Z,39.38
2022-08-17T18:32:08.377Z,33.75
2022-08-17T18:33:07.377Z,33.75
2022-08-17T18:34:18.714Z,33.75
2022-08-17T18:35:08.283Z,28.12
2022-08-17T18:36:07.368Z,28.12
2022-08-17T18:37:07.248Z,22.50
2022-08-17T18:38:07.699Z,22.50
2022-08-17T18:39:07.220Z,22.50
2022-08-17T18:40:07.365Z,16.88
2022-08-17T18:41:07.200Z,16.88
2022-08-17T18:42:07.221Z,16.88
2022-08-17T18:43:08.180Z,16.88
2022-08-17T18:44:07.241Z,16.88
2022-08-17T18:45:07.180Z,11.25
2022-08-17T18:46:07.384Z,11.25
2022-08-17T18:47:07.134Z,11.25
2022-08-17T18:48:07.633Z,11.25
2022-08-17T18:49:07.113Z,11.25
2022-08-17T18:50:07.523Z,5.62
2022-08-17T18:51:07.094Z,5.62
2022-08-17T18:52:07.107Z,5.62
2022-08-17T18:53:07.354Z,5.62
2022-08-17T18:54:07.096Z,5.62
2022-08-17T18:55:07.062Z,5.62
2022-08-17T18:56:07.075Z,5.62
2022-08-17T18:57:07.026Z,0.00
2022-08-17T18:58:07.418Z,0.00
2022-08-17T18:59:07.010Z,0.00
2022-08-17T19:00:07.115Z,0.00
2022-08-17T19:01:06.988Z,0.00
2022-08-17T19:02:12.025Z,0.00
2022-08-17T19:03:08.033Z,0.00
2022-08-17T19:04:07.018Z,0.00
2022-08-17T19:05:06.960Z,0.00
2022-08-17T19:06:07.109Z,0.00
2022-08-17T19:07:06.944Z,0.00
2022-08-17T19:08:07.017Z,0.00
2022-08-17T19:09:06.901Z,0.00
2022-08-17T19:10:06.922Z,0.00
2022-08-17T19:11:06.892Z,0.00
2022-08-17T19:12:06.905Z,0.00
2022-08-17T19:13:12.614Z,0.00
2022-08-17T19:14:07.874Z,0.00
2022-08-17T19:15:06.854Z,0.00
2022-08-17T19:16:12.103Z,0.00
2022-08-17T19:17:07.821Z,0.00
2022-08-17T19:18:09.902Z,0.00
2022-08-17T19:19:07.793Z,0.00
2022-08-17T19:20:06.845Z,0.00
2022-08-17T19:21:06.775Z,0.00
2022-08-17T19:22:06.987Z,0.00
2022-08-17T19:23:06.785Z,0.00
2022-08-17T19:24:06.917Z,0.00
2022-08-17T19:25:09.257Z,0.00
2022-08-17T19:26:06.838Z,0.00
2022-08-17T19:27:07.707Z,0.00
2022-08-17T19:28:15.341Z,0.00
2022-08-17T19:29:07.708Z,0.00
2022-08-17T19:30:08.363Z,0.00
2022-08-17T19:31:06.670Z,0.00
2022-08-17T19:32:06.729Z,0.00
2022-08-17T19:33:06.648Z,0.00
2022-08-17T19:34:06.697Z,0.00
2022-08-17T19:35:06.650Z,0.00
2022-08-17T19:36:06.722Z,0.00
2022-08-17T19:37:06.601Z,0.00
2022-08-17T19:38:12.882Z,0.00
2022-08-17T19:39:07.573Z,0.00
2022-08-17T19:40:06.711Z,0.00
2022-08-17T19:41:06.612Z,0.00
2022-08-17T19:42:06.656Z,0.00
2022-08-17T19:43:06.534Z,0.00
2022-08-17T19:44:06.576Z,0.00
2022-08-17T19:45:06.546Z,0.00
2022-08-17T19:46:06.594Z,0.00
2022-08-17T19:47:06.493Z,0.00
2022-08-17T19:48:06.934Z,0.00
2022-08-17T19:49:06.484Z,0.00
2022-08-17T19:50:06.494Z,0.00
2022-08-17T19:51:06.585Z,0.00
2022-08-17T19:52:06.453Z,0.00
2022-08-17T19:53:06.425Z,0.00
2022-08-17T19:54:07.300Z,0.00
2022-08-17T19:55:06.420Z,0.00
2022-08-17T19:56:06.460Z,0.00
2022-08-17T19:57:06.410Z,0.00
2022-08-17T19:58:06.556Z,0.00
2022-08-17T19:59:06.371Z,0.00
2022-08-17T20:00:06.407Z,0.00
2022-08-17T20:01:06.395Z,0.00
2022-08-17T20:02:06.347Z,0.00
2022-08-17T20:03:06.609Z,0.00
2022-08-17T20:04:06.312Z,0.00
2022-08-17T20:05:06.312Z,0.00
2022-08-17T20:06:13.001Z,0.00
2022-08-17T20:07:07.273Z,0.00
2022-08-17T20:08:06.300Z,0.00
2022-08-17T20:09:06.775Z,0.00
2022-08-17T20:10:06.274Z,0.00
2022-08-17T20:11:06.234Z,0.00
2022-08-17T20:12:06.263Z,0.00
2022-08-17T20:13:06.212Z,0.00
2022-08-17T20:14:06.227Z,0.00
2022-08-17T20:15:06.214Z,0.00
2022-08-17T20:16:06.185Z,0.00
2022-08-17T20:17:06.177Z,0.00
2022-08-17T20:18:06.154Z,0.00
2022-08-17T20:19:06.148Z,0.00
2022-08-17T20:20:06.150Z,0.00
2022-08-17T20:21:06.125Z,0.00
2022-08-17T20:22:06.144Z,0.00
2022-08-17T20:23:06.105Z,0.00
2022-08-17T20:24:06.398Z,0.00
2022-08-17T20:25:06.086Z,0.00
2022-08-17T20:26:06.102Z,0.00
2022-08-17T20:27:06.057Z,0.00
2022-08-17T20:28:06.837Z,0.00
2022-08-17T20:29:06.037Z,0.00
2022-08-17T20:30:06.381Z,0.00
2022-08-17T20:31:06.010Z,0.00
2022-08-17T20:32:06.105Z,0.00
2022-08-17T20:33:05.989Z,0.00
2022-08-17T20:34:06.016Z,0.00
2022-08-17T20:35:05.981Z,0.00
2022-08-17T20:36:05.998Z,0.00
2022-08-17T20:37:05.953Z,0.00
2022-08-17T20:38:05.995Z,0.00
2022-08-17T20:39:05.921Z,0.00
2022-08-17T20:40:06.069Z,0.00
2022-08-17T20:41:07.429Z,0.00
2022-08-17T20:42:05.896Z,0.00
2022-08-17T20:43:05.874Z,0.00
2022-08-17T20:44:05.921Z,0.00
2022-08-17T20:45:05.872Z,0.00
2022-08-17T20:46:05.873Z,0.00
2022-08-17T20:47:05.838Z,0.00
2022-08-17T20:48:33.318Z,0.00
2022-08-17T20:49:06.813Z,0.00
2022-08-17T20:50:05.808Z,0.00
2022-08-17T20:51:05.797Z,0.00
2022-08-17T20:52:05.774Z,0.00
2022-08-17T20:53:05.766Z,0.00
2022-08-17T20:54:05.768Z,0.00
2022-08-17T20:55:05.761Z,0.00
2022-08-17T20:56:05.729Z,0.00
2022-08-17T20:57:06.110Z,0.00
2022-08-17T20:58:06.799Z,0.00
2022-08-17T20:59:05.699Z,0.00
2022-08-17T21:00:05.899Z,0.00
2022-08-17T21:01:05.732Z,0.00
2022-08-17T21:02:05.669Z,0.00
2022-08-17T21:03:05.798Z,0.00
2022-08-17T21:04:06.849Z,0.00
2022-08-17T21:05:07.279Z,0.00
2022-08-17T21:06:14.440Z,0.00
2022-08-17T21:07:06.612Z,0.00
2022-08-17T21:08:05.608Z,0.00
2022-08-17T21:09:05.592Z,0.00
2022-08-17T21:10:05.602Z,0.00
2022-08-17T21:11:05.569Z,0.00
2022-08-17T21:12:05.813Z,0.00
2022-08-17T21:13:05.543Z,0.00
2022-08-17T21:14:05.541Z,0.00
2022-08-17T21:15:05.536Z,0.00
2022-08-17T21:16:05.514Z,0.00
2022-08-17T21:17:05.506Z,0.00
2022-08-17T21:18:05.579Z,0.00
2022-08-17T21:19:06.942Z,0.00
2022-08-17T21:20:11.485Z,0.00
2022-08-17T21:21:06.470Z,0.00
2022-08-17T21:22:05.521Z,0.00
2022-08-17T21:23:05.440Z,0.00
2022-08-17T21:24:05.437Z,0.00
2022-08-17T21:25:05.419Z,0.00
2022-08-17T21:26:05.439Z,0.00
2022-08-17T21:27:05.449Z,0.00
2022-08-17T21:28:05.387Z,0.00
2022-08-17T21:29:30.172Z,0.00
2022-08-17T21:30:06.726Z,0.00
2022-08-17T21:31:05.348Z,0.00
2022-08-17T21:32:06.215Z,0.00
2022-08-17T21:33:05.329Z,0.00
2022-08-17T21:34:05.405Z,0.00
2022-08-17T21:35:05.320Z,0.00
2022-08-17T21:36:05.520Z,0.00
2022-08-17T21:37:05.281Z,0.00
2022-08-17T21:38:05.312Z,0.00
2022-08-17T21:39:05.263Z,0.00
2022-08-17T21:40:05.371Z,0.00
2022-08-17T21:41:05.232Z,0.00
2022-08-17T21:42:05.234Z,0.00
2022-08-17T21:43:05.213Z,0.00
2022-08-17T21:44:05.582Z,0.00
2022-08-17T21:45:05.324Z,0.00
2022-08-17T21:46:05.201Z,0.00
2022-08-17T21:47:05.175Z,0.00
2022-08-17T21:48:05.175Z,0.00
2022-08-17T21:49:09.140Z,0.00
2022-08-17T21:50:06.156Z,0.00
2022-08-17T21:51:05.135Z,0.00
2022-08-17T21:52:05.140Z,0.00
2022-08-17T21:53:05.116Z,0.00
2022-08-17T21:54:05.106Z,0.00
2022-08-17T21:55:05.100Z,0.00
2022-08-17T21:56:05.096Z,0.00
2022-08-17T21:57:05.066Z,0.00